sensor_id;sensor_type;location;lat;lon;timestamp;temperature;humidity
75170;SHT31;63749;49.186;9.222;2023-02-28T00:01:02;-0.97;72.87
75170;SHT31;63749;49.186;9.222;2023-02-28T00:03:28;-0.98;72.91
75170;SHT31;63749;49.186;9.222;2023-02-28T00:05:53;-0.92;72.73
75170;SHT31;63749;49.186;9.222;2023-02-28T00:08:19;-0.91;73.25
75170;SHT31;63749;49.186;9.222;2023-02-28T00:10:44;-0.87;72.88
75170;SHT31;63749;49.186;9.222;2023-02-28T00:13:09;-0.85;73.07
75170;SHT31;63749;49.186;9.222;2023-02-28T00:15:36;-0.83;73.07
75170;SHT31;63749;49.186;9.222;2023-02-28T00:18:02;-0.85;73.03
75170;SHT31;63749;49.186;9.222;2023-02-28T00:20:28;-0.88;72.78
75170;SHT31;63749;49.186;9.222;2023-02-28T00:22:54;-0.88;73.09
75170;SHT31;63749;49.186;9.222;2023-02-28T00:25:22;-0.85;73.03
75170;SHT31;63749;49.186;9.222;2023-02-28T00:27:49;-0.91;73.19
75170;SHT31;63749;49.186;9.222;2023-02-28T00:30:17;-0.88;73.34
75170;SHT31;63749;49.186;9.222;2023-02-28T00:32:43;-0.88;73.41
75170;SHT31;63749;49.186;9.222;2023-02-28T00:35:09;-0.88;73.58
75170;SHT31;63749;49.186;9.222;2023-02-28T00:37:35;-0.91;73.54
75170;SHT31;63749;49.186;9.222;2023-02-28T00:40:01;-0.94;73.97
75170;SHT31;63749;49.186;9.222;2023-02-28T00:42:27;-1.01;74.21
75170;SHT31;63749;49.186;9.222;2023-02-28T00:44:54;-1.13;74.45
75170;SHT31;63749;49.186;9.222;2023-02-28T00:47:19;-1.15;74.74
75170;SHT31;63749;49.186;9.222;2023-02-28T00:49:45;-1.15;74.58
75170;SHT31;63749;49.186;9.222;2023-02-28T00:52:10;-1.15;74.72
75170;SHT31;63749;49.186;9.222;2023-02-28T00:54:35;-1.16;74.63
75170;SHT31;63749;49.186;9.222;2023-02-28T00:57:01;-1.21;75.22
75170;SHT31;63749;49.186;9.222;2023-02-28T00:59:26;-1.24;75.02
75170;SHT31;63749;49.186;9.222;2023-02-28T01:01:52;-1.29;75.37
75170;SHT31;63749;49.186;9.222;2023-02-28T01:04:17;-1.22;74.96
75170;SHT31;63749;49.186;9.222;2023-02-28T01:06:43;-1.19;74.85
75170;SHT31;63749;49.186;9.222;2023-02-28T01:09:09;-1.28;75.27
75170;SHT31;63749;49.186;9.222;2023-02-28T01:11:35;-1.34;75.48
75170;SHT31;63749;49.186;9.222;2023-02-28T01:14:01;-1.43;75.98
75170;SHT31;63749;49.186;9.222;2023-02-28T01:16:27;-1.49;76.21
75170;SHT31;63749;49.186;9.222;2023-02-28T01:18:52;-1.49;76.03
75170;SHT31;63749;49.186;9.222;2023-02-28T01:21:20;-1.45;75.93
75170;SHT31;63749;49.186;9.222;2023-02-28T01:23:47;-1.45;75.71
75170;SHT31;63749;49.186;9.222;2023-02-28T01:26:15;-1.46;75.84
75170;SHT31;63749;49.186;9.222;2023-02-28T01:28:41;-1.43;75.77
75170;SHT31;63749;49.186;9.222;2023-02-28T01:31:07;-1.50;75.88
75170;SHT31;63749;49.186;9.222;2023-02-28T01:33:33;-1.48;75.84
75170;SHT31;63749;49.186;9.222;2023-02-28T01:36:04;-1.52;76.18
75170;SHT31;63749;49.186;9.222;2023-02-28T01:38:29;-1.55;76.22
75170;SHT31;63749;49.186;9.222;2023-02-28T01:40:55;-1.58;76.28
75170;SHT31;63749;49.186;9.222;2023-02-28T01:43:35;-1.70;76.74
75170;SHT31;63749;49.186;9.222;2023-02-28T01:46:13;-1.71;77.15
75170;SHT31;63749;49.186;9.222;2023-02-28T01:51:18;-1.80;77.18
75170;SHT31;63749;49.186;9.222;2023-02-28T01:53:52;-1.84;77.42
75170;SHT31;63749;49.186;9.222;2023-02-28T01:56:22;-1.87;77.46
75170;SHT31;63749;49.186;9.222;2023-02-28T01:58:51;-1.84;77.67
75170;SHT31;63749;49.186;9.222;2023-02-28T02:01:17;-1.86;77.46
75170;SHT31;63749;49.186;9.222;2023-02-28T02:03:53;-1.84;77.43
75170;SHT31;63749;49.186;9.222;2023-02-28T02:06:22;-1.90;77.69
75170;SHT31;63749;49.186;9.222;2023-02-28T02:08:49;-1.93;77.79
75170;SHT31;63749;49.186;9.222;2023-02-28T02:11:18;-1.93;78.03
75170;SHT31;63749;49.186;9.222;2023-02-28T02:22:35;-1.98;78.28
75170;SHT31;63749;49.186;9.222;2023-02-28T02:25:24;-2.00;78.25
75170;SHT31;63749;49.186;9.222;2023-02-28T02:31:06;-2.02;78.43
75170;SHT31;63749;49.186;9.222;2023-02-28T02:37:26;-2.07;78.73
75170;SHT31;63749;49.186;9.222;2023-02-28T02:40:16;-2.00;78.29
75170;SHT31;63749;49.186;9.222;2023-02-28T02:45:33;-2.07;79.31
75170;SHT31;63749;49.186;9.222;2023-02-28T02:48:05;-1.95;78.77
75170;SHT31;63749;49.186;9.222;2023-02-28T02:50:39;-1.93;77.84
75170;SHT31;63749;49.186;9.222;2023-02-28T02:53:06;-1.90;77.96
75170;SHT31;63749;49.186;9.222;2023-02-28T02:55:37;-2.00;78.00
75170;SHT31;63749;49.186;9.222;2023-02-28T02:58:08;-1.95;78.58
75170;SHT31;63749;49.186;9.222;2023-02-28T03:00:46;-1.90;78.44
75170;SHT31;63749;49.186;9.222;2023-02-28T03:03:13;-1.91;77.88
75170;SHT31;63749;49.186;9.222;2023-02-28T03:05:47;-1.97;77.90
75170;SHT31;63749;49.186;9.222;2023-02-28T03:08:14;-1.90;77.77
75170;SHT31;63749;49.186;9.222;2023-02-28T03:10:44;-1.98;77.78
75170;SHT31;63749;49.186;9.222;2023-02-28T03:21:25;-1.97;78.34
75170;SHT31;63749;49.186;9.222;2023-02-28T03:26:31;-1.90;77.81
75170;SHT31;63749;49.186;9.222;2023-02-28T03:29:02;-1.89;77.98
75170;SHT31;63749;49.186;9.222;2023-02-28T03:34:08;-1.84;77.61
75170;SHT31;63749;49.186;9.222;2023-02-28T03:36:39;-1.74;77.46
75170;SHT31;63749;49.186;9.222;2023-02-28T03:39:16;-1.71;77.07
75170;SHT31;63749;49.186;9.222;2023-02-28T03:41:46;-1.62;77.19
75170;SHT31;63749;49.186;9.222;2023-02-28T03:44:18;-1.55;76.72
75170;SHT31;63749;49.186;9.222;2023-02-28T03:46:51;-1.45;76.29
75170;SHT31;63749;49.186;9.222;2023-02-28T03:49:22;-1.46;76.25
75170;SHT31;63749;49.186;9.222;2023-02-28T03:51:49;-1.45;76.25
75170;SHT31;63749;49.186;9.222;2023-02-28T03:54:19;-1.45;76.31
75170;SHT31;63749;49.186;9.222;2023-02-28T04:00:03;-1.32;75.61
75170;SHT31;63749;49.186;9.222;2023-02-28T04:02:31;-1.38;76.05
75170;SHT31;63749;49.186;9.222;2023-02-28T04:04:56;-1.38;75.87
75170;SHT31;63749;49.186;9.222;2023-02-28T04:07:22;-1.38;75.80
75170;SHT31;63749;49.186;9.222;2023-02-28T04:09:47;-1.38;75.53
75170;SHT31;63749;49.186;9.222;2023-02-28T04:12:13;-1.38;75.53
75170;SHT31;63749;49.186;9.222;2023-02-28T04:14:38;-1.41;75.71
75170;SHT31;63749;49.186;9.222;2023-02-28T04:17:03;-1.36;76.11
75170;SHT31;63749;49.186;9.222;2023-02-28T04:19:29;-1.36;75.81
75170;SHT31;63749;49.186;9.222;2023-02-28T04:21:55;-1.35;75.43
75170;SHT31;63749;49.186;9.222;2023-02-28T04:24:23;-1.27;75.10
75170;SHT31;63749;49.186;9.222;2023-02-28T04:26:51;-1.27;75.21
75170;SHT31;63749;49.186;9.222;2023-02-28T04:29:28;-1.21;75.05
75170;SHT31;63749;49.186;9.222;2023-02-28T04:31:55;-1.15;74.81
75170;SHT31;63749;49.186;9.222;2023-02-28T04:34:28;-1.12;74.81
75170;SHT31;63749;49.186;9.222;2023-02-28T04:36:54;-1.09;74.50
75170;SHT31;63749;49.186;9.222;2023-02-28T04:39:21;-0.95;75.29
75170;SHT31;63749;49.186;9.222;2023-02-28T04:41:46;-1.07;74.32
75170;SHT31;63749;49.186;9.222;2023-02-28T04:44:12;-1.02;74.81
75170;SHT31;63749;49.186;9.222;2023-02-28T04:46:38;-1.04;74.44
75170;SHT31;63749;49.186;9.222;2023-02-28T04:49:03;-1.00;74.61
75170;SHT31;63749;49.186;9.222;2023-02-28T04:51:29;-1.00;74.85
75170;SHT31;63749;49.186;9.222;2023-02-28T04:53:54;-1.05;74.60
75170;SHT31;63749;49.186;9.222;2023-02-28T04:56:20;-1.07;74.67
75170;SHT31;63749;49.186;9.222;2023-02-28T04:58:45;-1.09;74.60
75170;SHT31;63749;49.186;9.222;2023-02-28T05:01:20;-1.15;74.61
75170;SHT31;63749;49.186;9.222;2023-02-28T05:03:46;-1.13;74.74
75170;SHT31;63749;49.186;9.222;2023-02-28T05:06:12;-1.09;74.59
75170;SHT31;63749;49.186;9.222;2023-02-28T05:08:39;-1.11;74.96
75170;SHT31;63749;49.186;9.222;2023-02-28T05:11:06;-1.16;74.68
75170;SHT31;63749;49.186;9.222;2023-02-28T05:13:32;-1.15;74.83
75170;SHT31;63749;49.186;9.222;2023-02-28T05:15:57;-1.13;74.60
75170;SHT31;63749;49.186;9.222;2023-02-28T05:18:22;-1.13;75.00
75170;SHT31;63749;49.186;9.222;2023-02-28T05:20:48;-1.05;74.76
75170;SHT31;63749;49.186;9.222;2023-02-28T05:23:22;-1.15;75.18
75170;SHT31;63749;49.186;9.222;2023-02-28T05:25:48;-1.15;75.04
75170;SHT31;63749;49.186;9.222;2023-02-28T05:28:13;-1.12;75.25
75170;SHT31;63749;49.186;9.222;2023-02-28T05:30:39;-1.12;74.94
75170;SHT31;63749;49.186;9.222;2023-02-28T05:33:05;-1.07;75.10
75170;SHT31;63749;49.186;9.222;2023-02-28T05:35:30;-1.07;75.46
75170;SHT31;63749;49.186;9.222;2023-02-28T05:37:55;-1.15;75.06
75170;SHT31;63749;49.186;9.222;2023-02-28T05:40:21;-1.16;75.17
75170;SHT31;63749;49.186;9.222;2023-02-28T05:42:47;-1.08;75.44
75170;SHT31;63749;49.186;9.222;2023-02-28T05:45:12;-0.95;74.54
75170;SHT31;63749;49.186;9.222;2023-02-28T05:47:38;-0.98;75.19
75170;SHT31;63749;49.186;9.222;2023-02-28T05:50:04;-1.02;75.15
75170;SHT31;63749;49.186;9.222;2023-02-28T05:52:29;-0.94;74.48
75170;SHT31;63749;49.186;9.222;2023-02-28T05:54:55;-1.08;74.97
75170;SHT31;63749;49.186;9.222;2023-02-28T05:57:22;-1.02;74.73
75170;SHT31;63749;49.186;9.222;2023-02-28T05:59:47;-1.09;74.69
75170;SHT31;63749;49.186;9.222;2023-02-28T06:02:14;-1.02;75.05
75170;SHT31;63749;49.186;9.222;2023-02-28T06:04:40;-1.12;74.54
75170;SHT31;63749;49.186;9.222;2023-02-28T06:07:07;-1.16;75.44
75170;SHT31;63749;49.186;9.222;2023-02-28T06:09:32;-1.24;75.03
75170;SHT31;63749;49.186;9.222;2023-02-28T06:11:59;-1.29;75.22
75170;SHT31;63749;49.186;9.222;2023-02-28T06:14:25;-1.27;75.45
75170;SHT31;63749;49.186;9.222;2023-02-28T06:16:50;-1.08;77.44
75170;SHT31;63749;49.186;9.222;2023-02-28T06:19:15;-1.21;75.09
75170;SHT31;63749;49.186;9.222;2023-02-28T06:21:41;-1.21;74.85
75170;SHT31;63749;49.186;9.222;2023-02-28T06:24:07;-1.05;76.43
75170;SHT31;63749;49.186;9.222;2023-02-28T06:26:33;-1.04;75.67
75170;SHT31;63749;49.186;9.222;2023-02-28T06:28:58;-1.01;75.20
75170;SHT31;63749;49.186;9.222;2023-02-28T06:31:23;-0.87;76.13
75170;SHT31;63749;49.186;9.222;2023-02-28T06:33:51;-0.97;74.63
75170;SHT31;63749;49.186;9.222;2023-02-28T06:36:17;-0.92;76.22
75170;SHT31;63749;49.186;9.222;2023-02-28T06:38:44;-1.07;74.75
75170;SHT31;63749;49.186;9.222;2023-02-28T06:41:10;-1.25;74.70
75170;SHT31;63749;49.186;9.222;2023-02-28T06:43:41;-1.29;74.93
75170;SHT31;63749;49.186;9.222;2023-02-28T06:46:10;-1.16;75.20
75170;SHT31;63749;49.186;9.222;2023-02-28T06:48:35;-1.21;75.09
75170;SHT31;63749;49.186;9.222;2023-02-28T06:51:06;-1.16;75.47
75170;SHT31;63749;49.186;9.222;2023-02-28T06:53:33;-1.13;74.79
75170;SHT31;63749;49.186;9.222;2023-02-28T06:55:58;-1.13;74.84
75170;SHT31;63749;49.186;9.222;2023-02-28T06:58:23;-1.18;75.72
75170;SHT31;63749;49.186;9.222;2023-02-28T07:00:51;-1.05;73.78
75170;SHT31;63749;49.186;9.222;2023-02-28T07:03:17;-0.92;73.79
75170;SHT31;63749;49.186;9.222;2023-02-28T07:05:44;-0.97;73.31
75170;SHT31;63749;49.186;9.222;2023-02-28T07:08:10;-1.07;73.81
75170;SHT31;63749;49.186;9.222;2023-02-28T07:10:38;-1.08;74.86
75170;SHT31;63749;49.186;9.222;2023-02-28T07:13:04;-0.92;74.09
75170;SHT31;63749;49.186;9.222;2023-02-28T07:15:30;-0.95;73.54
75170;SHT31;63749;49.186;9.222;2023-02-28T07:17:56;-0.90;73.81
75170;SHT31;63749;49.186;9.222;2023-02-28T07:20:22;-0.98;73.51
75170;SHT31;63749;49.186;9.222;2023-02-28T07:22:48;-0.85;74.35
75170;SHT31;63749;49.186;9.222;2023-02-28T07:25:20;-0.85;73.58
75170;SHT31;63749;49.186;9.222;2023-02-28T07:27:46;-0.74;73.56
75170;SHT31;63749;49.186;9.222;2023-02-28T07:30:12;-0.81;73.20
75170;SHT31;63749;49.186;9.222;2023-02-28T07:32:37;-0.76;73.12
75170;SHT31;63749;49.186;9.222;2023-02-28T07:35:03;-0.64;73.00
75170;SHT31;63749;49.186;9.222;2023-02-28T07:37:28;-0.67;72.98
75170;SHT31;63749;49.186;9.222;2023-02-28T07:39:56;-0.56;73.10
75170;SHT31;63749;49.186;9.222;2023-02-28T07:42:22;-0.48;71.83
75170;SHT31;63749;49.186;9.222;2023-02-28T07:44:47;-0.48;71.92
75170;SHT31;63749;49.186;9.222;2023-02-28T07:47:13;-0.33;72.09
75170;SHT31;63749;49.186;9.222;2023-02-28T07:49:38;-0.37;72.27
75170;SHT31;63749;49.186;9.222;2023-02-28T07:52:05;-0.37;72.10
75170;SHT31;63749;49.186;9.222;2023-02-28T07:54:32;-0.28;72.47
75170;SHT31;63749;49.186;9.222;2023-02-28T07:56:57;-0.33;71.62
75170;SHT31;63749;49.186;9.222;2023-02-28T07:59:23;-0.22;71.66
75170;SHT31;63749;49.186;9.222;2023-02-28T08:01:48;-0.02;70.90
75170;SHT31;63749;49.186;9.222;2023-02-28T08:04:16;-0.16;70.91
75170;SHT31;63749;49.186;9.222;2023-02-28T08:06:41;-0.11;71.47
75170;SHT31;63749;49.186;9.222;2023-02-28T08:09:07;-0.02;70.83
75170;SHT31;63749;49.186;9.222;2023-02-28T08:11:32;0.09;70.60
75170;SHT31;63749;49.186;9.222;2023-02-28T08:13:57;0.13;70.31
75170;SHT31;63749;49.186;9.222;2023-02-28T08:16:23;0.40;70.17
75170;SHT31;63749;49.186;9.222;2023-02-28T08:18:52;0.29;69.46
75170;SHT31;63749;49.186;9.222;2023-02-28T08:21:18;0.32;69.59
75170;SHT31;63749;49.186;9.222;2023-02-28T08:23:43;0.49;69.24
75170;SHT31;63749;49.186;9.222;2023-02-28T08:26:09;0.61;69.27
75170;SHT31;63749;49.186;9.222;2023-02-28T08:28:34;0.60;69.36
75170;SHT31;63749;49.186;9.222;2023-02-28T08:31:00;0.81;68.54
75170;SHT31;63749;49.186;9.222;2023-02-28T08:33:27;0.90;68.76
75170;SHT31;63749;49.186;9.222;2023-02-28T08:35:56;0.80;67.84
75170;SHT31;63749;49.186;9.222;2023-02-28T08:38:22;0.88;67.81
75170;SHT31;63749;49.186;9.222;2023-02-28T08:40:48;1.02;67.50
75170;SHT31;63749;49.186;9.222;2023-02-28T08:43:13;1.08;67.29
75170;SHT31;63749;49.186;9.222;2023-02-28T08:45:39;1.29;66.74
75170;SHT31;63749;49.186;9.222;2023-02-28T08:48:04;1.40;66.78
75170;SHT31;63749;49.186;9.222;2023-02-28T08:50:30;1.56;66.08
75170;SHT31;63749;49.186;9.222;2023-02-28T08:52:55;1.57;65.87
75170;SHT31;63749;49.186;9.222;2023-02-28T08:55:20;1.55;65.41
75170;SHT31;63749;49.186;9.222;2023-02-28T08:57:46;1.43;65.21
75170;SHT31;63749;49.186;9.222;2023-02-28T09:00:12;1.56;65.26
75170;SHT31;63749;49.186;9.222;2023-02-28T09:02:39;1.73;64.81
75170;SHT31;63749;49.186;9.222;2023-02-28T09:05:05;1.76;65.01
75170;SHT31;63749;49.186;9.222;2023-02-28T09:07:30;2.00;64.02
75170;SHT31;63749;49.186;9.222;2023-02-28T09:09:56;2.03;63.42
75170;SHT31;63749;49.186;9.222;2023-02-28T09:12:26;2.22;64.24
75170;SHT31;63749;49.186;9.222;2023-02-28T09:14:52;2.29;63.58
75170;SHT31;63749;49.186;9.222;2023-02-28T09:17:19;2.28;63.47
75170;SHT31;63749;49.186;9.222;2023-02-28T09:19:47;2.45;62.19
75170;SHT31;63749;49.186;9.222;2023-02-28T09:22:12;2.42;61.98
75170;SHT31;63749;49.186;9.222;2023-02-28T09:24:38;2.45;61.21
75170;SHT31;63749;49.186;9.222;2023-02-28T09:27:04;2.41;61.06
75170;SHT31;63749;49.186;9.222;2023-02-28T09:29:31;2.37;61.69
75170;SHT31;63749;49.186;9.222;2023-02-28T09:31:57;2.66;60.67
75170;SHT31;63749;49.186;9.222;2023-02-28T09:34:28;2.77;60.55
75170;SHT31;63749;49.186;9.222;2023-02-28T09:36:55;2.90;60.35
75170;SHT31;63749;49.186;9.222;2023-02-28T09:39:21;3.07;59.15
75170;SHT31;63749;49.186;9.222;2023-02-28T09:41:50;3.32;59.51
75170;SHT31;63749;49.186;9.222;2023-02-28T09:44:26;3.21;58.11
75170;SHT31;63749;49.186;9.222;2023-02-28T09:47:18;3.24;58.08
75170;SHT31;63749;49.186;9.222;2023-02-28T09:49:46;3.30;57.90
75170;SHT31;63749;49.186;9.222;2023-02-28T09:52:18;3.58;56.70
75170;SHT31;63749;49.186;9.222;2023-02-28T09:54:44;3.38;56.65
75170;SHT31;63749;49.186;9.222;2023-02-28T09:57:33;3.45;56.50
75170;SHT31;63749;49.186;9.222;2023-02-28T10:02:45;3.65;55.92
75170;SHT31;63749;49.186;9.222;2023-02-28T10:05:12;3.86;56.67
75170;SHT31;63749;49.186;9.222;2023-02-28T10:13:14;3.61;55.18
75170;SHT31;63749;49.186;9.222;2023-02-28T10:15:42;3.92;54.88
75170;SHT31;63749;49.186;9.222;2023-02-28T10:18:12;4.20;54.89
75170;SHT31;63749;49.186;9.222;2023-02-28T10:20:40;4.36;53.36
75170;SHT31;63749;49.186;9.222;2023-02-28T10:23:21;4.76;53.18
75170;SHT31;63749;49.186;9.222;2023-02-28T10:26:16;4.54;52.98
75170;SHT31;63749;49.186;9.222;2023-02-28T10:28:41;4.86;53.84
75170;SHT31;63749;49.186;9.222;2023-02-28T10:31:11;4.71;53.30
75170;SHT31;63749;49.186;9.222;2023-02-28T10:33:39;5.29;52.98
75170;SHT31;63749;49.186;9.222;2023-02-28T10:36:05;5.26;51.54
75170;SHT31;63749;49.186;9.222;2023-02-28T10:38:36;4.95;52.40
75170;SHT31;63749;49.186;9.222;2023-02-28T10:41:08;4.64;52.05
75170;SHT31;63749;49.186;9.222;2023-02-28T10:43:34;5.05;51.71
75170;SHT31;63749;49.186;9.222;2023-02-28T10:48:34;5.27;51.22
75170;SHT31;63749;49.186;9.222;2023-02-28T10:51:02;5.12;51.17
75170;SHT31;63749;49.186;9.222;2023-02-28T10:53:34;5.08;51.87
75170;SHT31;63749;49.186;9.222;2023-02-28T11:03:57;5.32;50.15
75170;SHT31;63749;49.186;9.222;2023-02-28T11:06:29;6.14;59.34
75170;SHT31;63749;49.186;9.222;2023-02-28T11:09:44;6.42;51.65
75170;SHT31;63749;49.186;9.222;2023-02-28T11:11:44;7.14;53.87
75170;SHT31;63749;49.186;9.222;2023-02-28T11:14:31;7.43;48.67
75170;SHT31;63749;49.186;9.222;2023-02-28T11:17:13;7.66;48.88
75170;SHT31;63749;49.186;9.222;2023-02-28T11:19:45;6.79;47.92
75170;SHT31;63749;49.186;9.222;2023-02-28T11:22:27;7.12;48.08
75170;SHT31;63749;49.186;9.222;2023-02-28T11:24:59;6.54;47.32
75170;SHT31;63749;49.186;9.222;2023-02-28T11:29:55;5.56;50.64
75170;SHT31;63749;49.186;9.222;2023-02-28T11:32:26;5.42;50.11
75170;SHT31;63749;49.186;9.222;2023-02-28T11:35:28;5.85;50.15
75170;SHT31;63749;49.186;9.222;2023-02-28T11:37:55;6.57;49.01
75170;SHT31;63749;49.186;9.222;2023-02-28T11:40:30;6.74;48.62
75170;SHT31;63749;49.186;9.222;2023-02-28T11:51:35;6.36;48.03
75170;SHT31;63749;49.186;9.222;2023-02-28T11:54:21;6.46;49.16
75170;SHT31;63749;49.186;9.222;2023-02-28T11:56:54;6.62;47.62
75170;SHT31;63749;49.186;9.222;2023-02-28T12:02:54;5.81;49.69
75170;SHT31;63749;49.186;9.222;2023-02-28T12:05:28;5.71;49.86
75170;SHT31;63749;49.186;9.222;2023-02-28T12:08:04;6.16;49.90
75170;SHT31;63749;49.186;9.222;2023-02-28T12:13:26;6.09;50.28
75170;SHT31;63749;49.186;9.222;2023-02-28T12:16:20;5.93;49.62
75170;SHT31;63749;49.186;9.222;2023-02-28T12:21:48;6.64;47.59
75170;SHT31;63749;49.186;9.222;2023-02-28T12:24:45;6.30;49.05
75170;SHT31;63749;49.186;9.222;2023-02-28T12:27:17;6.84;48.06
75170;SHT31;63749;49.186;9.222;2023-02-28T12:30:08;6.58;47.77
75170;SHT31;63749;49.186;9.222;2023-02-28T12:33:02;7.04;47.46
75170;SHT31;63749;49.186;9.222;2023-02-28T12:35:36;6.84;47.93
75170;SHT31;63749;49.186;9.222;2023-02-28T12:38:10;6.83;47.39
75170;SHT31;63749;49.186;9.222;2023-02-28T12:40:50;6.79;48.41
75170;SHT31;63749;49.186;9.222;2023-02-28T12:43:18;6.52;47.86
75170;SHT31;63749;49.186;9.222;2023-02-28T12:46:01;6.18;48.43
75170;SHT31;63749;49.186;9.222;2023-02-28T12:48:36;6.26;48.27
75170;SHT31;63749;49.186;9.222;2023-02-28T12:51:02;5.99;49.06
75170;SHT31;63749;49.186;9.222;2023-02-28T12:57:04;6.39;48.92
75170;SHT31;63749;49.186;9.222;2023-02-28T12:59:43;7.11;47.88
75170;SHT31;63749;49.186;9.222;2023-02-28T13:05:12;7.34;46.40
75170;SHT31;63749;49.186;9.222;2023-02-28T13:10:47;7.39;45.21
75170;SHT31;63749;49.186;9.222;2023-02-28T13:13:20;7.26;45.93
75170;SHT31;63749;49.186;9.222;2023-02-28T13:16:08;6.94;47.47
75170;SHT31;63749;49.186;9.222;2023-02-28T13:21:07;7.34;45.78
75170;SHT31;63749;49.186;9.222;2023-02-28T13:26:12;7.11;46.73
75170;SHT31;63749;49.186;9.222;2023-02-28T13:29:00;7.19;46.33
75170;SHT31;63749;49.186;9.222;2023-02-28T13:31:26;7.29;46.30
75170;SHT31;63749;49.186;9.222;2023-02-28T13:36:30;7.16;45.26
75170;SHT31;63749;49.186;9.222;2023-02-28T13:39:01;7.05;46.14
75170;SHT31;63749;49.186;9.222;2023-02-28T13:46:31;8.10;43.70
75170;SHT31;63749;49.186;9.222;2023-02-28T14:06:26;7.95;43.86
75170;SHT31;63749;49.186;9.222;2023-02-28T14:09:02;7.79;43.97
75170;SHT31;63749;49.186;9.222;2023-02-28T14:11:37;7.45;45.04
75170;SHT31;63749;49.186;9.222;2023-02-28T14:14:06;8.62;42.54
75170;SHT31;63749;49.186;9.222;2023-02-28T14:16:39;9.47;40.39
75170;SHT31;63749;49.186;9.222;2023-02-28T14:19:19;10.01;39.88
75170;SHT31;63749;49.186;9.222;2023-02-28T14:22:09;9.06;42.16
75170;SHT31;63749;49.186;9.222;2023-02-28T14:30:57;9.19;41.27
75170;SHT31;63749;49.186;9.222;2023-02-28T14:36:30;11.58;36.20
75170;SHT31;63749;49.186;9.222;2023-02-28T14:39:00;11.69;36.40
75170;SHT31;63749;49.186;9.222;2023-02-28T14:41:31;12.13;35.29
75170;SHT31;63749;49.186;9.222;2023-02-28T14:44:01;11.08;36.62
75170;SHT31;63749;49.186;9.222;2023-02-28T14:46:34;11.77;36.47
75170;SHT31;63749;49.186;9.222;2023-02-28T14:49:00;12.17;34.78
75170;SHT31;63749;49.186;9.222;2023-02-28T14:51:26;11.52;35.52
75170;SHT31;63749;49.186;9.222;2023-02-28T14:53:57;12.05;36.29
75170;SHT31;63749;49.186;9.222;2023-02-28T14:56:28;12.58;33.75
75170;SHT31;63749;49.186;9.222;2023-02-28T14:58:56;11.86;35.00
75170;SHT31;63749;49.186;9.222;2023-02-28T15:01:23;12.41;34.30
75170;SHT31;63749;49.186;9.222;2023-02-28T15:04:01;12.50;34.36
75170;SHT31;63749;49.186;9.222;2023-02-28T15:06:28;11.81;35.16
75170;SHT31;63749;49.186;9.222;2023-02-28T15:09:08;11.65;35.53
75170;SHT31;63749;49.186;9.222;2023-02-28T15:11:33;12.87;34.26
75170;SHT31;63749;49.186;9.222;2023-02-28T15:14:00;12.86;34.22
75170;SHT31;63749;49.186;9.222;2023-02-28T15:16:38;13.68;33.14
75170;SHT31;63749;49.186;9.222;2023-02-28T15:19:22;13.34;33.38
75170;SHT31;63749;49.186;9.222;2023-02-28T15:21:53;13.17;33.92
75170;SHT31;63749;49.186;9.222;2023-02-28T15:24:30;12.99;33.22
75170;SHT31;63749;49.186;9.222;2023-02-28T15:26:58;12.46;33.59
75170;SHT31;63749;49.186;9.222;2023-02-28T15:29:27;12.20;35.15
75170;SHT31;63749;49.186;9.222;2023-02-28T15:32:01;11.53;35.23
75170;SHT31;63749;49.186;9.222;2023-02-28T15:34:33;10.98;36.24
75170;SHT31;63749;49.186;9.222;2023-02-28T15:36:59;10.72;36.85
75170;SHT31;63749;49.186;9.222;2023-02-28T15:39:28;10.87;37.68
75170;SHT31;63749;49.186;9.222;2023-02-28T15:42:17;10.60;36.95
75170;SHT31;63749;49.186;9.222;2023-02-28T15:44:43;9.37;39.46
75170;SHT31;63749;49.186;9.222;2023-02-28T15:47:23;9.03;40.77
75170;SHT31;63749;49.186;9.222;2023-02-28T15:50:00;9.09;40.77
75170;SHT31;63749;49.186;9.222;2023-02-28T15:52:38;9.10;40.86
75170;SHT31;63749;49.186;9.222;2023-02-28T15:55:28;8.87;41.70
75170;SHT31;63749;49.186;9.222;2023-02-28T15:58:00;8.52;42.67
75170;SHT31;63749;49.186;9.222;2023-02-28T16:00:30;7.82;43.57
75170;SHT31;63749;49.186;9.222;2023-02-28T16:02:57;6.91;45.79
75170;SHT31;63749;49.186;9.222;2023-02-28T16:05:30;6.85;46.96
75170;SHT31;63749;49.186;9.222;2023-02-28T16:07:59;6.60;47.15
75170;SHT31;63749;49.186;9.222;2023-02-28T16:10:27;6.32;47.96
75170;SHT31;63749;49.186;9.222;2023-02-28T16:12:54;6.11;48.30
75170;SHT31;63749;49.186;9.222;2023-02-28T16:17:48;5.64;49.92
75170;SHT31;63749;49.186;9.222;2023-02-28T16:20:15;5.43;50.46
75170;SHT31;63749;49.186;9.222;2023-02-28T16:22:42;5.32;50.65
75170;SHT31;63749;49.186;9.222;2023-02-28T16:25:11;5.23;51.23
75170;SHT31;63749;49.186;9.222;2023-02-28T16:27:37;5.15;51.27
75170;SHT31;63749;49.186;9.222;2023-02-28T16:30:04;5.05;52.58
75170;SHT31;63749;49.186;9.222;2023-02-28T16:32:32;4.91;51.99
75170;SHT31;63749;49.186;9.222;2023-02-28T16:35:00;4.88;52.64
75170;SHT31;63749;49.186;9.222;2023-02-28T16:37:26;4.81;52.59
75170;SHT31;63749;49.186;9.222;2023-02-28T16:39:52;4.76;52.97
75170;SHT31;63749;49.186;9.222;2023-02-28T16:42:22;4.68;54.31
75170;SHT31;63749;49.186;9.222;2023-02-28T16:44:48;4.60;54.81
75170;SHT31;63749;49.186;9.222;2023-02-28T16:47:14;4.44;55.18
75170;SHT31;63749;49.186;9.222;2023-02-28T16:49:39;4.36;55.42
75170;SHT31;63749;49.186;9.222;2023-02-28T16:52:07;4.40;55.41
75170;SHT31;63749;49.186;9.222;2023-02-28T16:54:33;4.24;55.97
75170;SHT31;63749;49.186;9.222;2023-02-28T16:56:58;4.10;56.38
75170;SHT31;63749;49.186;9.222;2023-02-28T16:59:26;4.03;56.93
75170;SHT31;63749;49.186;9.222;2023-02-28T17:01:52;3.86;57.32
75170;SHT31;63749;49.186;9.222;2023-02-28T17:04:18;3.79;57.67
75170;SHT31;63749;49.186;9.222;2023-02-28T17:06:44;3.75;57.90
75170;SHT31;63749;49.186;9.222;2023-02-28T17:09:16;3.69;58.29
75170;SHT31;63749;49.186;9.222;2023-02-28T17:11:42;3.66;58.30
75170;SHT31;63749;49.186;9.222;2023-02-28T17:14:07;3.55;58.74
75170;SHT31;63749;49.186;9.222;2023-02-28T17:16:35;3.45;59.21
75170;SHT31;63749;49.186;9.222;2023-02-28T17:19:04;3.35;59.51
75170;SHT31;63749;49.186;9.222;2023-02-28T17:21:31;3.32;59.80
75170;SHT31;63749;49.186;9.222;2023-02-28T17:23:57;3.30;59.74
75170;SHT31;63749;49.186;9.222;2023-02-28T17:26:23;3.21;60.06
75170;SHT31;63749;49.186;9.222;2023-02-28T17:28:54;3.11;60.34
75170;SHT31;63749;49.186;9.222;2023-02-28T17:31:21;3.11;60.35
75170;SHT31;63749;49.186;9.222;2023-02-28T17:33:47;3.10;60.22
75170;SHT31;63749;49.186;9.222;2023-02-28T17:36:17;3.07;60.23
75170;SHT31;63749;49.186;9.222;2023-02-28T17:38:47;3.04;60.22
75170;SHT31;63749;49.186;9.222;2023-02-28T17:41:12;3.01;60.22
75170;SHT31;63749;49.186;9.222;2023-02-28T17:43:38;3.03;60.08
75170;SHT31;63749;49.186;9.222;2023-02-28T17:46:03;3.01;60.04
75170;SHT31;63749;49.186;9.222;2023-02-28T17:48:31;2.99;60.12
75170;SHT31;63749;49.186;9.222;2023-02-28T17:50:56;2.99;60.21
75170;SHT31;63749;49.186;9.222;2023-02-28T17:53:22;2.93;60.21
75170;SHT31;63749;49.186;9.222;2023-02-28T17:55:51;2.87;60.36
75170;SHT31;63749;49.186;9.222;2023-02-28T17:58:16;2.79;60.62